METAR Data
IDs: Format: Raw Decoded Include TAF

Data at: 0127 UTC 01 Nov 2020

FNLU 010100Z 19005KT 8000 FEW018 BKN020 25/23 Q1009

TAF FNLU 312300Z 0100/0206 22007KT 9000 FEW020 BKN040
  TEMPO 0103/0108 20006KT 8000 SCT015 BKN022
  BECMG 0110/0112 24007KT 9999 FEW018


No METAR found for FNCA

TAF FNCA 312300Z 0100/0112 20007KT 8000 FEW015 BKN025
  TEMPO 0103/0108 17005KT 4000 +TSRA SCT018 BKN022
  BECMG 0110/0112 22007KT 7000 RADZ BKN018 FEW025CB


No METAR found for FNBG

TAF FNBG 312300Z 0100/0112 26004KT 9000 FEW015 BKN040
  TEMPO 0104/0110 32010KT 8000 SCT015 FEW025CB


No METAR found for FNHU

TAF FNHU 312300Z 0100/0112 VRB03KT 9000 FEW018
  BECMG 0109/0112 08006KT 8000 NSC


No METAR found for FNUE

TAF FNUE 312300Z 0100/0112 29004KT 8000 NSC
  TEMPO 0106/0112 07006KT CAVOK


No METAR found for FNGI

TAF FNGI 312300Z 0100/0112 23004KT 9999 FEW020
  TEMPO 0104/0111 VRB03KT 9000 NSC


No METAR found for FNUB

TAF FNUB 312300Z 0100/0112 VRB03KT 9000 NSC
  PROB30
  TEMPO 0106/0111 04004KT 7000 DZRA SCT012 FEW020TCU


No METAR found for FNMO

TAF FNMO 312300Z 0100/0112 26004KT 9000 NSC
  BECMG 0109/0112 28011KT CAVOK


No METAR found for FNUG
No TAF found for FNUG

No METAR found for FNMA

TAF FNMA 312300Z 0100/0112 30005KT 9000 FEW015 BKN025
  BECMG 0109/0112 03004KT 5000 RADZ SCT018 FEW025CB BKN040


No METAR found for FNSA

TAF FNSA 312300Z 0100/0112 VRB03KT 9000 SCT022
  BECMG 0109/0112 05004KT 8000 FEW015 FEW025TCU


No METAR found for FNSO

TAF FNSO 312300Z 0100/0112 20007KT 8000 FEW015 BKN025
  TEMPO 0103/0108 17005KT 5000 TSRA SCT018 BKN022
  BECMG 0110/0112 22007KT 7000 RADZ BKN018 FEW025CB


No METAR found for FNBC
No TAF found for FNBC

No METAR found for FNSU
No TAF found for FNSU

No METAR found for FNDU

TAF FNDU 312300Z 0100/0112 VRB03KT 9000 FEW012 BKN040
  TEMPO 0104/0112 08004KT 8000 FEW018 FEW030TCU


No METAR found for FNME

TAF FNME 312300Z 0100/0112 VRB03KT 9999 FEW015
  TEMPO 0104/0110 04005KT 8000 FEW018 FEW025TCU


No METAR found for FNCT

TAF FNCT 312300Z 0100/0112 26004KT 9000 FEW015 BKN040
  TEMPO 0103/0108 VRB02KT 8000 SCT015 FEW025CB
  BECMG 0109/0112 31010KT 9999


No METAR found for FNKU

TAF FNKU 312300Z 0100/0112 23004KT 9000 NSC
  BECMG 0109/0112 06007KT CAVOK